createdAt,value
2022-08-03T00:01:38.697Z,99955.66
2022-08-03T00:04:06.671Z,99964.97
2022-08-03T00:06:37.129Z,99961.69
2022-08-03T00:09:05.907Z,99971.19
2022-08-03T00:11:33.333Z,99976.22
2022-08-03T00:14:01.451Z,99973.81
2022-08-03T00:16:28.770Z,99972.59
2022-08-03T00:18:56.102Z,99976.34
2022-08-03T00:21:23.279Z,99980.03
2022-08-03T00:23:50.754Z,99978.84
2022-08-03T00:26:20.996Z,99964.25
2022-08-03T00:28:49.029Z,99975.59
2022-08-03T00:31:16.347Z,99975.69
2022-08-03T00:33:59.264Z,99969.53
2022-08-03T00:36:30.574Z,99983.03
2022-08-03T00:38:57.742Z,99975.75
2022-08-03T00:41:24.980Z,99966.47
2022-08-03T00:43:52.345Z,99974.22
2022-08-03T00:46:22.604Z,99975.44
2022-08-03T00:48:50.622Z,99973.41
2022-08-03T00:51:19.290Z,99974.25
2022-08-03T00:53:46.651Z,99971.75
2022-08-03T00:56:17.820Z,99969.78
2022-08-03T00:58:46.567Z,99973.84
2022-08-03T01:01:15.417Z,99964.84
2022-08-03T01:03:42.794Z,99952.25
2022-08-03T01:06:13.575Z,99965.25
2022-08-03T01:09:14.165Z,99961.16
2022-08-03T01:12:00.106Z,99968.91
2022-08-03T01:14:44.537Z,99965.94
2022-08-03T01:17:25.169Z,99969.66
2022-08-03T01:20:14.543Z,99961.03
2022-08-03T01:23:00.548Z,99963.31
2022-08-03T01:26:06.247Z,99965.78
2022-08-03T01:28:58.395Z,99960.06
2022-08-03T01:33:02.784Z,99960.06
2022-08-03T01:34:56.450Z,99964.13
2022-08-03T01:37:32.080Z,99964.94
2022-08-03T01:40:02.389Z,99969.13
2022-08-03T01:42:31.700Z,99946.34
2022-08-03T01:45:01.271Z,99953.25
2022-08-03T01:47:30.815Z,99957.31
2022-08-03T01:49:59.286Z,99954.34
2022-08-03T01:52:27.855Z,99944.59
2022-08-03T01:54:55.879Z,99955.31
2022-08-03T01:57:25.512Z,99946.28
2022-08-03T01:59:55.937Z,99954.47
2022-08-03T02:02:33.138Z,99952.84
2022-08-03T02:05:04.314Z,99958.00
2022-08-03T02:07:33.144Z,99967.34
2022-08-03T02:10:03.009Z,99957.63
2022-08-03T02:12:33.901Z,99947.78
2022-08-03T02:15:23.225Z,99950.91
2022-08-03T02:17:50.990Z,99948.84
2022-08-03T02:20:19.685Z,99947.53
2022-08-03T02:22:47.362Z,99947.19
2022-08-03T02:25:16.272Z,99953.25
2022-08-03T02:27:49.425Z,99946.41
2022-08-03T02:30:17.168Z,99953.34
2022-08-03T02:32:51.811Z,99955.72
2022-08-03T02:35:23.466Z,99952.94
2022-08-03T02:37:56.239Z,99954.88
2022-08-03T02:40:28.239Z,99960.28
2022-08-03T02:43:03.870Z,99958.44
2022-08-03T02:45:33.071Z,99958.38
2022-08-03T02:48:03.238Z,99951.47
2022-08-03T02:50:31.938Z,99956.78
2022-08-03T02:53:01.806Z,99951.56
2022-08-03T02:55:30.737Z,99963.09
2022-08-03T02:58:01.482Z,99963.19
2022-08-03T03:00:31.947Z,99959.13
2022-08-03T03:03:02.905Z,99959.94
2022-08-03T03:05:55.339Z,99957.06
2022-08-03T03:08:26.213Z,99959.09
2022-08-03T03:10:58.455Z,99957.06
2022-08-03T03:13:28.468Z,99953.38
2022-08-03T03:15:59.673Z,99955.84
2022-08-03T03:18:29.207Z,99968.06
2022-08-03T03:20:58.143Z,99969.19
2022-08-03T03:23:26.363Z,99974.09
2022-08-03T03:25:56.182Z,99965.13
2022-08-03T03:28:25.189Z,99979.78
2022-08-03T03:30:53.478Z,99982.69
2022-08-03T03:33:22.846Z,99974.91
2022-08-03T03:35:51.948Z,99980.59
2022-08-03T03:38:20.003Z,99976.94
2022-08-03T03:40:47.759Z,99985.41
2022-08-03T03:43:15.268Z,99982.94
2022-08-03T03:45:43.356Z,99983.34
2022-08-03T03:48:11.254Z,100000.41
2022-08-03T03:50:41.082Z,99994.22
2022-08-03T03:53:13.758Z,99991.28
2022-08-03T03:55:57.907Z,100001.03
2022-08-03T03:58:28.185Z,99998.22
2022-08-03T04:00:55.455Z,99986.06
2022-08-03T04:03:23.457Z,99995.78
2022-08-03T04:06:09.711Z,100001.03
2022-08-03T04:08:55.204Z,100005.53
2022-08-03T04:12:01.258Z,100023.81
2022-08-03T04:14:35.384Z,100021.44
2022-08-03T04:17:04.014Z,100024.06
2022-08-03T04:19:38.770Z,100023.69
2022-08-03T04:22:11.434Z,100021.66
2022-08-03T04:24:43.451Z,100008.47
2022-08-03T04:27:14.525Z,100017.91
2022-08-03T04:29:48.441Z,100018.00
2022-08-03T04:32:17.828Z,100026.03
2022-08-03T04:34:46.208Z,100021.03
2022-08-03T04:37:25.592Z,100023.41
2022-08-03T04:39:57.575Z,100020.53
2022-08-03T04:42:26.035Z,100017.72
2022-08-03T04:45:00.844Z,100022.19
2022-08-03T04:47:34.922Z,100028.31
2022-08-03T04:50:05.597Z,100020.84
2022-08-03T04:52:37.143Z,100024.91
2022-08-03T04:55:04.788Z,100020.47
2022-08-03T04:57:32.159Z,100011.41
2022-08-03T05:00:02.996Z,100015.06
2022-08-03T05:02:35.177Z,100014.25
2022-08-03T05:05:02.489Z,100026.34
2022-08-03T05:07:35.953Z,100018.13
2022-08-03T05:10:10.167Z,100035.56
2022-08-03T05:12:46.733Z,100036.81
2022-08-03T05:15:15.404Z,100037.56
2022-08-03T05:17:42.963Z,100027.22
2022-08-03T05:20:11.416Z,100032.16
2022-08-03T05:22:38.851Z,100040.63
2022-08-03T05:25:06.708Z,100025.09
2022-08-03T05:27:33.895Z,100046.31
2022-08-03T05:30:30.810Z,100044.69
2022-08-03T05:32:49.612Z,100038.19
2022-08-03T05:36:02.728Z,100038.16
2022-08-03T05:38:04.067Z,100052.84
2022-08-03T05:40:33.212Z,100040.53
2022-08-03T05:43:01.946Z,100053.94
2022-08-03T05:45:29.341Z,100059.59
2022-08-03T05:47:56.718Z,100062.78
2022-08-03T05:50:24.254Z,100055.84
2022-08-03T05:52:51.662Z,100045.22
2022-08-03T05:55:19.255Z,100054.16
2022-08-03T05:57:48.146Z,100054.91
2022-08-03T06:00:17.284Z,100048.19
2022-08-03T06:02:45.590Z,100049.81
2022-08-03T06:05:13.129Z,100054.06
2022-08-03T06:07:40.424Z,100049.03
2022-08-03T06:10:37.024Z,100058.53
2022-08-03T06:12:57.640Z,100044.69
2022-08-03T06:15:25.063Z,100060.97
2022-08-03T06:17:52.610Z,100064.94
2022-08-03T06:20:21.263Z,100071.78
2022-08-03T06:23:00.465Z,100066.88
2022-08-03T06:25:29.047Z,100071.13
2022-08-03T06:27:56.553Z,100054.03
2022-08-03T06:30:23.863Z,100064.56
2022-08-03T06:32:52.145Z,100049.03
2022-08-03T06:35:20.614Z,100053.75
2022-08-03T06:37:52.120Z,100060.19
2022-08-03T06:40:29.422Z,100065.44
2022-08-03T06:42:59.168Z,100060.44
2022-08-03T06:45:31.991Z,100053.03
2022-08-03T06:48:06.848Z,100075.69
2022-08-03T06:50:35.901Z,100065.13
2022-08-03T06:53:04.338Z,100079.22
2022-08-03T06:55:32.619Z,100075.50
2022-08-03T06:58:03.203Z,100075.44
2022-08-03T07:00:31.183Z,100070.13
2022-08-03T07:02:58.693Z,100075.78
2022-08-03T07:05:26.018Z,100077.06
2022-08-03T07:07:57.904Z,100071.88
2022-08-03T07:10:25.509Z,100066.88
2022-08-03T07:12:56.568Z,100074.19
2022-08-03T07:15:54.560Z,100089.59
2022-08-03T07:18:12.603Z,100080.03
2022-08-03T07:20:40.337Z,100074.31
2022-08-03T07:23:07.522Z,100089.66
2022-08-03T07:25:34.725Z,100085.09
2022-08-03T07:28:03.644Z,100085.41
2022-08-03T07:30:31.061Z,100093.00
2022-08-03T07:32:58.333Z,100079.53
2022-08-03T07:35:26.539Z,100089.81
2022-08-03T07:37:55.132Z,100092.94
2022-08-03T07:40:23.091Z,100092.81
2022-08-03T07:42:53.497Z,100080.53
2022-08-03T07:45:23.618Z,100072.91
2022-08-03T07:47:53.222Z,100082.25
2022-08-03T07:50:23.043Z,100087.34
2022-08-03T07:52:52.303Z,100082.34
2022-08-03T07:55:22.007Z,100082.66
2022-08-03T07:58:08.152Z,100079.53
2022-08-03T08:00:36.421Z,100080.66
2022-08-03T08:03:04.887Z,100089.94
2022-08-03T08:05:32.483Z,100087.75
2022-08-03T08:08:03.342Z,100090.16
2022-08-03T08:10:31.020Z,100081.47
2022-08-03T08:12:58.740Z,100078.81
2022-08-03T08:15:26.129Z,100071.16
2022-08-03T08:17:55.723Z,100090.13
2022-08-03T08:20:28.704Z,100103.03
2022-08-03T08:23:09.588Z,100087.41
2022-08-03T08:25:53.292Z,100099.19
2022-08-03T08:28:31.016Z,100095.47
2022-08-03T08:31:01.191Z,100095.75
2022-08-03T08:33:37.635Z,100082.72
2022-08-03T08:36:15.080Z,100099.63
2022-08-03T08:38:45.144Z,100107.75
2022-08-03T08:41:14.752Z,100109.00
2022-08-03T08:43:42.614Z,100098.09
2022-08-03T08:46:23.628Z,100101.34
2022-08-03T08:48:52.962Z,100104.50
2022-08-03T08:51:21.854Z,100109.00
2022-08-03T08:53:54.000Z,100097.03
2022-08-03T08:56:25.893Z,100097.28
2022-08-03T08:58:59.378Z,100103.75
2022-08-03T09:01:27.491Z,100093.69
2022-08-03T09:03:55.378Z,100095.13
2022-08-03T09:06:23.600Z,100099.97
2022-08-03T09:08:51.447Z,100099.09
2022-08-03T09:11:51.784Z,100090.09
2022-08-03T09:14:36.677Z,100101.81
2022-08-03T09:17:04.168Z,100098.75
2022-08-03T09:19:33.067Z,100097.66
2022-08-03T09:22:18.752Z,100112.25
2022-08-03T09:25:21.700Z,100102.78
2022-08-03T09:27:46.605Z,100107.38
2022-08-03T09:30:33.175Z,100105.22
2022-08-03T09:33:08.307Z,100114.78
2022-08-03T09:35:57.778Z,100107.81
2022-08-03T09:38:27.638Z,100124.28
2022-08-03T09:40:59.836Z,100121.00
2022-08-03T09:43:29.057Z,100109.63
2022-08-03T09:46:04.324Z,100121.34
2022-08-03T09:48:35.148Z,100120.53
2022-08-03T09:51:13.627Z,100119.19
2022-08-03T09:53:59.696Z,100118.53
2022-08-03T09:56:45.352Z,100123.69
2022-08-03T09:59:14.611Z,100116.75
2022-08-03T10:01:42.750Z,100111.13
2022-08-03T10:04:15.279Z,100120.53
2022-08-03T10:06:45.425Z,100117.66
2022-08-03T10:09:16.718Z,100118.38
2022-08-03T10:11:47.020Z,100107.38
2022-08-03T10:14:20.289Z,100117.84
2022-08-03T10:16:48.374Z,100113.25
2022-08-03T10:19:16.705Z,100107.56
2022-08-03T10:21:59.238Z,100090.38
2022-08-03T10:24:29.704Z,100101.34
2022-08-03T10:27:02.671Z,100108.66
2022-08-03T10:29:34.084Z,100091.09
2022-08-03T10:32:05.923Z,100090.28
2022-08-03T10:34:42.602Z,100090.78
2022-08-03T10:37:14.352Z,100073.69
2022-08-03T10:39:53.639Z,100079.38
2022-08-03T10:42:27.353Z,100079.25
2022-08-03T10:45:13.493Z,100074.09
2022-08-03T10:47:41.813Z,100070.22
2022-08-03T10:50:10.407Z,100069.06
2022-08-03T10:52:54.627Z,100067.47
2022-08-03T10:55:51.017Z,100074.88
2022-08-03T10:58:37.246Z,100063.19
2022-08-03T11:01:12.582Z,100061.47
2022-08-03T11:03:55.204Z,100060.72
2022-08-03T11:06:25.000Z,100060.94
2022-08-03T11:09:12.902Z,100050.31
2022-08-03T11:11:43.527Z,100061.75
2022-08-03T11:14:14.898Z,100051.94
2022-08-03T11:16:48.428Z,100061.19
2022-08-03T11:19:24.301Z,100077.84
2022-08-03T11:21:56.530Z,100068.00
2022-08-03T11:24:42.797Z,100080.97
2022-08-03T11:27:19.571Z,100085.22
2022-08-03T11:29:57.671Z,100087.31
2022-08-03T11:32:41.278Z,100074.13
2022-08-03T11:35:35.663Z,100064.66
2022-08-03T11:38:05.658Z,100066.19
2022-08-03T11:40:37.399Z,100050.78
2022-08-03T11:43:10.419Z,100034.84
2022-08-03T11:45:38.350Z,100038.66
2022-08-03T11:48:17.171Z,100049.06
2022-08-03T11:50:45.685Z,100064.06
2022-08-03T11:53:18.574Z,100059.91
2022-08-03T11:55:50.622Z,100065.09
2022-08-03T11:59:15.398Z,100075.50
2022-08-03T12:01:21.227Z,100077.66
2022-08-03T12:03:50.959Z,100085.63
2022-08-03T12:06:19.479Z,100084.47
2022-08-03T12:08:47.060Z,100085.63
2022-08-03T12:11:16.307Z,100101.78
2022-08-03T12:14:44.209Z,100094.13
2022-08-03T12:16:36.870Z,100073.41
2022-08-03T12:19:07.074Z,100098.03
2022-08-03T12:21:34.467Z,100086.56
2022-08-03T12:24:04.947Z,100071.78
2022-08-03T12:26:56.802Z,100068.53
2022-08-03T12:29:26.774Z,100076.38
2022-08-03T12:31:56.070Z,100064.59
2022-08-03T12:34:23.601Z,100060.53
2022-08-03T12:36:53.152Z,100062.97
2022-08-03T12:39:24.452Z,100055.75
2022-08-03T12:41:55.976Z,100056.47
2022-08-03T12:44:31.486Z,100050.97
2022-08-03T12:46:59.919Z,100050.78
2022-08-03T12:49:30.487Z,100052.69
2022-08-03T12:52:05.309Z,100043.47
2022-08-03T12:54:36.242Z,100037.47
2022-08-03T12:57:16.350Z,100042.53
2022-08-03T12:59:53.510Z,100031.63
2022-08-03T13:02:24.085Z,100020.00
2022-08-03T13:04:54.514Z,100023.00
2022-08-03T13:07:23.175Z,100026.50
2022-08-03T13:09:54.641Z,100027.69
2022-08-03T13:12:24.553Z,100027.94
2022-08-03T13:14:57.397Z,100032.44
2022-08-03T13:17:25.858Z,100031.19
2022-08-03T13:19:53.689Z,100033.72
2022-08-03T13:22:23.493Z,100046.75
2022-08-03T13:24:53.825Z,100032.88
2022-08-03T13:28:10.976Z,100027.03
2022-08-03T13:30:09.239Z,100033.69
2022-08-03T13:32:36.601Z,100032.31
2022-08-03T13:35:04.779Z,100042.94
2022-08-03T13:37:32.616Z,100043.75
2022-08-03T13:40:02.754Z,100045.47
2022-08-03T13:42:32.611Z,100043.75
2022-08-03T13:45:01.255Z,100039.81
2022-08-03T13:47:31.533Z,100056.19
2022-08-03T13:50:00.050Z,100060.22
2022-08-03T13:52:33.797Z,100046.28
2022-08-03T13:55:05.719Z,100065.91
2022-08-03T13:58:11.502Z,100065.72
2022-08-03T14:00:27.751Z,100058.16
2022-08-03T14:03:04.028Z,100069.16
2022-08-03T14:05:33.597Z,100046.13
2022-08-03T14:08:03.104Z,100065.91
2022-08-03T14:10:37.656Z,100060.22
2022-08-03T14:13:06.401Z,100070.59
2022-08-03T14:15:38.035Z,100072.28
2022-08-03T14:18:15.633Z,100082.22
2022-08-03T14:20:49.015Z,100069.88
2022-08-03T14:23:19.423Z,100075.44
2022-08-03T14:25:51.939Z,100069.09
2022-08-03T14:28:23.049Z,100080.84
2022-08-03T14:30:54.948Z,100070.00
2022-08-03T14:33:23.630Z,100078.66
2022-08-03T14:35:52.270Z,100076.44
2022-08-03T14:38:20.399Z,100077.16
2022-08-03T14:40:48.175Z,100078.31
2022-08-03T14:43:18.170Z,100076.44
2022-08-03T14:45:45.535Z,100065.13
2022-08-03T14:50:26.520Z,100083.63
2022-08-03T14:51:00.421Z,100082.22
2022-08-03T14:53:29.219Z,100072.31
2022-08-03T14:55:56.710Z,100070.00
2022-08-03T14:58:27.716Z,100083.25
2022-08-03T15:00:56.065Z,100083.69
2022-08-03T15:03:25.199Z,100087.47
2022-08-03T15:05:54.401Z,100083.06
2022-08-03T15:08:23.460Z,100078.81
2022-08-03T15:10:50.964Z,100080.16
2022-08-03T15:13:20.780Z,100082.94
2022-08-03T15:15:48.588Z,100072.66
2022-08-03T15:18:16.108Z,100079.91
2022-08-03T15:20:45.508Z,100088.47
2022-08-03T15:23:15.349Z,100088.56
2022-08-03T15:26:28.962Z,100101.28
2022-08-03T15:28:32.072Z,100092.97
2022-08-03T15:30:59.284Z,100099.09
2022-08-03T15:33:26.535Z,100104.97
2022-08-03T15:35:54.245Z,100100.09
2022-08-03T15:38:26.176Z,100084.13
2022-08-03T15:40:55.339Z,100105.72
2022-08-03T15:43:23.503Z,100111.88
2022-08-03T15:46:12.637Z,100118.59
2022-08-03T15:48:39.858Z,100110.97
2022-08-03T15:51:09.573Z,100110.59
2022-08-03T15:53:37.250Z,100118.34
2022-08-03T15:56:10.640Z,100111.22
2022-08-03T15:59:04.855Z,100124.75
2022-08-03T16:01:28.468Z,100118.34
2022-08-03T16:03:55.632Z,100124.56
2022-08-03T16:06:35.509Z,100130.91
2022-08-03T16:09:24.138Z,100122.44
2022-08-03T16:11:53.816Z,100127.84
2022-08-03T16:14:32.256Z,100117.28
2022-08-03T16:17:04.204Z,100120.53
2022-08-03T16:19:31.672Z,100117.22
2022-08-03T16:21:59.437Z,100111.09
2022-08-03T16:24:28.485Z,100121.06
2022-08-03T16:26:56.566Z,100112.78
2022-08-03T16:29:24.240Z,100116.63
2022-08-03T16:31:52.793Z,100120.69
2022-08-03T16:34:20.902Z,100127.69
2022-08-03T16:36:48.272Z,100125.72
2022-08-03T16:39:15.705Z,100140.47
2022-08-03T16:41:54.303Z,100133.19
2022-08-03T16:44:30.799Z,100134.00
2022-08-03T16:46:59.315Z,100148.22
2022-08-03T16:49:55.395Z,100149.84
2022-08-03T16:52:16.734Z,100172.00
2022-08-03T16:54:53.276Z,100191.72
2022-08-03T16:57:56.461Z,100186.22
2022-08-03T17:00:10.651Z,100177.28
2022-08-03T17:02:41.155Z,100180.13
2022-08-03T17:05:15.844Z,100195.00
2022-08-03T17:07:47.008Z,100204.47
2022-08-03T17:10:22.037Z,100190.22
2022-08-03T17:12:54.887Z,100202.69
2022-08-03T17:15:51.709Z,100212.41
2022-08-03T17:18:14.467Z,100213.50
2022-08-03T17:20:45.079Z,100213.91
2022-08-03T17:23:40.020Z,100217.22
2022-08-03T17:26:21.142Z,100222.59
2022-08-03T17:28:57.463Z,100225.09
2022-08-03T17:31:32.123Z,100246.34
2022-08-03T17:34:13.977Z,100226.44
2022-08-03T17:37:03.225Z,100234.91
2022-08-03T17:39:55.635Z,100227.38
2022-08-03T17:42:29.444Z,100199.38
2022-08-03T17:45:02.358Z,100203.91
2022-08-03T17:47:42.165Z,100203.50
2022-08-03T17:50:24.342Z,100210.16
2022-08-03T17:53:07.439Z,100195.13
2022-08-03T17:55:55.230Z,100199.38
2022-08-03T17:58:39.593Z,100210.06
2022-08-03T18:02:01.825Z,100208.75
2022-08-03T18:04:30.019Z,100200.28
2022-08-03T18:07:11.266Z,100197.97
2022-08-03T18:10:03.350Z,100193.25
2022-08-03T18:12:41.724Z,100185.66
2022-08-03T18:15:21.386Z,100187.78
2022-08-03T18:17:58.110Z,100190.16
2022-08-03T18:20:41.076Z,100199.94
2022-08-03T18:23:24.983Z,100196.69
2022-08-03T18:26:01.434Z,100195.16
2022-08-03T18:28:29.802Z,100195.69
2022-08-03T18:30:58.256Z,100199.41
2022-08-03T18:34:18.954Z,100200.19
2022-08-03T18:36:21.613Z,100209.56
2022-08-03T18:38:52.148Z,100211.22
2022-08-03T18:41:33.370Z,100215.31
2022-08-03T18:44:08.719Z,100236.66
2022-08-03T18:47:15.981Z,100224.03
2022-08-03T18:50:05.877Z,100218.38
2022-08-03T18:52:53.141Z,100212.25
2022-08-03T18:55:33.502Z,100221.22
2022-08-03T18:58:34.459Z,100249.41
2022-08-03T19:01:57.552Z,100249.41
2022-08-03T19:04:12.198Z,100284.13
2022-08-03T19:09:40.852Z,100302.44
2022-08-03T19:12:30.662Z,100285.25
2022-08-03T19:15:12.747Z,100279.94
2022-08-03T19:17:53.233Z,100288.13
2022-08-03T19:20:28.209Z,100285.69
2022-08-03T19:22:57.952Z,100276.69
2022-08-03T19:25:34.246Z,100274.69
2022-08-03T19:28:07.229Z,100275.91
2022-08-03T19:30:39.043Z,100271.47
2022-08-03T19:33:08.343Z,100272.28
2022-08-03T19:35:51.720Z,100264.91
2022-08-03T19:38:29.210Z,100263.69
2022-08-03T19:41:01.263Z,100254.75
2022-08-03T19:43:52.627Z,100259.19
2022-08-03T19:46:30.571Z,100255.88
2022-08-03T19:49:20.123Z,100250.94
2022-08-03T19:51:58.599Z,100246.84
2022-08-03T19:54:53.396Z,100241.09
2022-08-03T19:57:24.817Z,100260.28
2022-08-03T19:59:53.930Z,100247.59
2022-08-03T20:02:26.836Z,100245.06
2022-08-03T20:04:57.285Z,100254.38
2022-08-03T20:07:26.128Z,100255.56
2022-08-03T20:09:56.459Z,100249.84
2022-08-03T20:12:29.108Z,100243.78
2022-08-03T20:14:58.919Z,100245.84
2022-08-03T20:17:57.143Z,100234.47
2022-08-03T20:20:23.463Z,100236.13
2022-08-03T20:22:57.809Z,100244.25
2022-08-03T20:25:57.235Z,100237.28
2022-08-03T20:28:34.202Z,100240.97
2022-08-03T20:31:01.950Z,100222.25
2022-08-03T20:36:20.441Z,100236.22
2022-08-03T20:38:48.442Z,100235.84
2022-08-03T20:41:17.693Z,100239.09
2022-08-03T20:43:46.139Z,100237.09
2022-08-03T20:46:30.861Z,100225.31
2022-08-03T20:49:04.166Z,100213.88
2022-08-03T20:51:53.086Z,100234.66
2022-08-03T20:54:29.902Z,100230.63
2022-08-03T20:57:04.190Z,100237.56
2022-08-03T20:59:50.563Z,100242.50
2022-08-03T21:02:29.483Z,100238.81
2022-08-03T21:05:03.491Z,100237.19
2022-08-03T21:08:05.111Z,100238.00
2022-08-03T21:10:39.028Z,100232.28
2022-08-03T21:13:10.648Z,100273.88
2022-08-03T21:13:12.351Z,100233.72
2022-08-03T21:13:19.097Z,100244.94
2022-08-03T21:16:12.730Z,100242.06
2022-08-03T21:18:46.488Z,100224.91
2022-08-03T21:21:16.497Z,100235.91
2022-08-03T21:23:49.077Z,100208.56
2022-08-03T21:26:22.245Z,100224.91
2022-08-03T21:28:51.746Z,100222.47
2022-08-03T21:31:25.134Z,100232.69
2022-08-03T21:33:59.754Z,100233.47
2022-08-03T21:36:29.327Z,100229.81
2022-08-03T21:38:57.700Z,100234.75
2022-08-03T21:41:27.481Z,100231.06
2022-08-03T21:43:54.743Z,100226.56
2022-08-03T21:46:23.406Z,100237.59
2022-08-03T21:50:04.785Z,100237.16
2022-08-03T21:51:49.685Z,100227.34
2022-08-03T21:54:20.405Z,100225.69
2022-08-03T21:56:48.727Z,100230.16
2022-08-03T21:59:20.342Z,100237.09
2022-08-03T22:01:51.319Z,100230.56
2022-08-03T22:04:45.851Z,100226.09
2022-08-03T22:07:10.734Z,100228.94
2022-08-03T22:09:38.116Z,100218.75
2022-08-03T22:12:05.824Z,100228.16
2022-08-03T22:14:33.862Z,100233.03
2022-08-03T22:17:03.337Z,100231.44
2022-08-03T22:19:33.888Z,100220.81
2022-08-03T22:22:05.032Z,100237.97
2022-08-03T22:24:35.380Z,100230.66
2022-08-03T22:27:21.961Z,100215.16
2022-08-03T22:29:50.387Z,100235.56
2022-08-03T22:32:17.656Z,100226.97
2022-08-03T22:34:47.558Z,100242.09
2022-08-03T22:37:18.721Z,100222.06
2022-08-03T22:39:46.047Z,100223.72
2022-08-03T22:42:14.165Z,100222.91
2022-08-03T22:44:41.429Z,100218.38
2022-08-03T22:47:09.936Z,100221.63
2022-08-03T22:49:38.101Z,100231.47
2022-08-03T22:52:07.597Z,100218.78
2022-08-03T22:54:36.265Z,100231.88
2022-08-03T22:57:05.324Z,100227.38
2022-08-03T22:59:41.407Z,100218.38
2022-08-03T23:02:21.685Z,100222.06
2022-08-03T23:04:52.859Z,100221.69
2022-08-03T23:07:27.732Z,100221.66
2022-08-03T23:09:56.930Z,100219.22
2022-08-03T23:12:24.743Z,100213.91
2022-08-03T23:14:56.817Z,100221.25
2022-08-03T23:17:26.120Z,100221.63
2022-08-03T23:19:55.729Z,100226.97
2022-08-03T23:22:29.297Z,100213.91
2022-08-03T23:24:59.662Z,100215.13
2022-08-03T23:27:27.956Z,100210.22
2022-08-03T23:29:57.728Z,100215.53
2022-08-03T23:32:29.991Z,100205.34
2022-08-03T23:35:20.744Z,100228.59
2022-08-03T23:38:04.257Z,100218.38
2022-08-03T23:40:37.176Z,100222.88
2022-08-03T23:43:05.765Z,100232.66
2022-08-03T23:45:36.390Z,100234.69
2022-08-03T23:48:03.681Z,100224.91
2022-08-03T23:50:43.753Z,100236.75
2022-08-03T23:53:21.731Z,100224.47
2022-08-03T23:56:01.153Z,100241.22
2022-08-03T23:58:52.142Z,100228.16
